Aviation Digital Data Service (ADDS)

Output produced by METARs form (0814 UTC 24 May 2018)
found at http://www.aviationweather.gov/adds/metars/
 
FCBB 240700Z 25004KT 230V290 8000 FEW010 BKN020 24/22 Q1015 NOSIG
TAF FCBB 240500Z 2406/2512 23004KT 9000 SCT013 SCT023 
     PROB40 2415/2419 SCT014 SCT023 FEW026CB
       
FCPP 240700Z 08002KT 8000 FEW010 BKN023 23/23 Q1014 NOSIG
TAF FCPP 240500Z 2406/2506 20006KT 8000 SCT012 BKN023 
     PROB40 2416/2420 SCT013 BKN023 FEW026CB